Flight Track Log - Related Links

Times and Time Zones

All times are in EDT time to prevent confusion due to time zone crossing. See the N111BF flight status page for this flight to view local times or setup timezone preferences in your user account.


Time Position Orientation Groundspeed Altitude Reporting Facility
EDT Latitude Longitude Course Direction KTS MPH feet Rate Location/Type
Wed 01:00:08 PM 33.1333 -96.5833 180° South 185 213 2,000  Level Dallas / Fort Worth TRACON
Wed 01:01:07 PM 33.0833 -96.6000 196° South 221 254 2,200 1,261 Climbing Dallas / Fort Worth TRACON
Wed 01:02:07 PM 33.0167 -96.6000 180° South 196 226 4,500 2,550 Climbing Dallas / Fort Worth TRACON
Wed 01:03:07 PM 32.9500 -96.6000 180° South 221 254 7,300 2,605 Climbing Dallas / Fort Worth TRACON
Wed 01:04:16 PM 32.8872 -96.6342 205° Southwest 233 268 10,100 2,233 Climbing Fort Worth Center
Wed 01:05:00 PM 32.8436 -96.7345 192° South  Level Estimated
Wed 01:05:16 PM 32.8269 -96.6667 204° Southwest 244 281 12,100  Level Fort Worth Center
Wed 01:06:16 PM 32.7603 -96.7019 204° Southwest 258 297 14,000 1,750 Climbing Fort Worth Center
Wed 01:07:16 PM 32.6917 -96.7369 203° Southwest 258 297 15,600 1,000 Climbing Fort Worth Center
Wed 01:08:16 PM 32.6189 -96.7769 205° Southwest 273 314 16,000 200 Climbing Fort Worth Center
Wed 01:09:16 PM 32.5397 -96.8169 203° Southwest 300 345 16,000  Level Fort Worth Center
Wed 01:10:16 PM 32.4586 -96.8594 204° Southwest 317 365 16,000  Level Fort Worth Center
Wed 01:11:16 PM 32.3753 -96.9017 203° Southwest 317 365 16,000  Level Fort Worth Center
Wed 01:12:16 PM 32.2939 -96.9439 204° Southwest 317 365 16,000  Level Fort Worth Center
Wed 01:13:16 PM 32.2208 -96.9811 203° Southwest 317 365 16,000  Level Fort Worth Center
Wed 01:14:16 PM 32.1333 -97.0283 205° Southwest 317 365 16,000 -200 Level Fort Worth Center
Wed 01:15:16 PM 32.0500 -97.0728 204° Southwest 317 365 15,600 -1,300 Descending Fort Worth Center
Wed 01:16:16 PM 31.9708 -97.1122 203° Southwest 317 365 13,400 -1,900 Descending Fort Worth Center
Wed 01:17:16 PM 31.8958 -97.1492 203° Southwest 300 345 11,800 -1,773 Descending Fort Worth Center
Wed 01:18:28 PM 31.8206 -97.1908 205° Southwest 294 338 9,500 -2,227 Descending Fort Worth Center
Wed 01:19:28 PM 31.7331 -97.2350 203° Southwest 289 333 6,900 -1,950 Descending Fort Worth Center
Wed 01:20:28 PM 31.6619 -97.2694 202° Southwest 283 326 5,600 -1,650 Descending Fort Worth Center
Wed 01:21:28 PM 31.5911 -97.2889 193° South 269 310 3,600 -1,600 Descending Fort Worth Center
Wed 01:22:28 PM 31.5453 -97.3086 200° South 235 270 2,400 4,700 Descending Fort Worth Center
Wed 01:23:28 PM 31.5139 -97.3208 198° South 158 182 13,000 -700 Climbing Fort Worth Center
Wed 01:24:28 PM 31.4639 -97.3428 201° Southwest 150 173 1,000  Descending Fort Worth Center
Wed 01:25:28 PM 31.4219 -97.3597 199° South 150 173 13,000 6,000 Climbing Fort Worth Center
Wed 01:26:28 PM 31.3803 -97.3792 202° Southwest 150 173 13,000  Level Fort Worth Center
Wed 01:27:28 PM 31.3386 -97.3964 199° South 150 173 13,000  Level Fort Worth Center
Wed 01:28:28 PM 31.3303 -97.4011 206° Southwest 150 173 13,000  Level Fort Worth Center

Login

Don't have an account? Register now (free) for customized features, flight alerts, and more!